createdAt,value
2018-12-23T00:00:40.757Z,1010.41
2018-12-23T00:01:40.720Z,1010.43
2018-12-23T00:02:40.771Z,1010.48
2018-12-23T00:03:40.691Z,1010.49
2018-12-23T00:04:40.705Z,1010.50
2018-12-23T00:05:40.691Z,1010.58
2018-12-23T00:06:40.678Z,1010.58
2018-12-23T00:07:40.656Z,1010.57
2018-12-23T00:08:40.638Z,1010.58
2018-12-23T00:09:40.725Z,1010.59
2018-12-23T00:10:40.626Z,1010.65
2018-12-23T00:11:40.609Z,1010.64
2018-12-23T00:12:40.605Z,1010.66
2018-12-23T00:13:40.642Z,1010.65
2018-12-23T00:14:40.584Z,1010.58
2018-12-23T00:15:40.581Z,1010.59
2018-12-23T00:16:40.541Z,1010.59
2018-12-23T00:17:40.583Z,1010.59
2018-12-23T00:18:40.538Z,1010.52
2018-12-23T00:19:40.562Z,1010.59
2018-12-23T00:20:40.542Z,1010.59
2018-12-23T00:21:40.513Z,1010.57
2018-12-23T00:22:40.534Z,1010.63
2018-12-23T00:23:40.516Z,1010.67
2018-12-23T00:24:40.455Z,1010.70
2018-12-23T00:25:40.502Z,1010.74
2018-12-23T00:26:40.469Z,1010.69
2018-12-23T00:27:40.426Z,1010.73
2018-12-23T00:28:40.416Z,1010.73
2018-12-23T00:29:40.412Z,1010.67
2018-12-23T00:30:40.422Z,1010.64
2018-12-23T00:31:40.428Z,1010.69
2018-12-23T00:32:40.362Z,1010.59
2018-12-23T00:33:40.353Z,1010.61
2018-12-23T00:34:40.342Z,1010.63
2018-12-23T00:35:40.354Z,1010.60
2018-12-23T00:36:40.321Z,1010.58
2018-12-23T00:37:40.394Z,1010.66
2018-12-23T00:38:40.355Z,1010.68
2018-12-23T00:39:40.307Z,1010.69
2018-12-23T00:40:40.435Z,1010.74
2018-12-23T00:41:40.264Z,1010.75
2018-12-23T00:42:40.247Z,1010.75
2018-12-23T00:43:40.243Z,1010.73
2018-12-23T00:44:40.259Z,1010.67
2018-12-23T00:45:40.230Z,1010.69
2018-12-23T00:46:40.216Z,1010.70
2018-12-23T00:47:40.280Z,1010.70
2018-12-23T00:48:40.270Z,1010.69
2018-12-23T00:49:40.196Z,1010.75
2018-12-23T00:50:40.192Z,1010.78
2018-12-23T00:51:40.173Z,1010.80
2018-12-23T00:52:40.156Z,1010.80
2018-12-23T00:53:40.162Z,1010.82
2018-12-23T00:54:40.121Z,1010.87
2018-12-23T00:55:40.135Z,1010.86
2018-12-23T00:56:40.098Z,1010.94
2018-12-23T00:57:40.085Z,1010.95
2018-12-23T00:58:40.092Z,1010.97
2018-12-23T00:59:40.073Z,1010.98
2018-12-23T01:00:40.063Z,1010.97
2018-12-23T01:01:40.063Z,1011.00
2018-12-23T01:02:40.025Z,1010.97
2018-12-23T01:03:40.018Z,1010.97
2018-12-23T01:04:40.022Z,1010.97
2018-12-23T01:05:40.013Z,1010.96
2018-12-23T01:06:40.006Z,1010.92
2018-12-23T01:07:39.972Z,1010.98
2018-12-23T01:08:39.965Z,1010.97
2018-12-23T01:09:39.954Z,1010.96
2018-12-23T01:10:39.953Z,1011.02
2018-12-23T01:11:39.940Z,1011.03
2018-12-23T01:12:39.936Z,1011.03
2018-12-23T01:13:39.902Z,1011.05
2018-12-23T01:14:39.920Z,1011.00
2018-12-23T01:15:39.907Z,1011.03
2018-12-23T01:16:39.872Z,1011.02
2018-12-23T01:17:39.859Z,1011.01
2018-12-23T01:18:39.864Z,1011.01
2018-12-23T01:19:39.847Z,1010.96
2018-12-23T01:20:39.828Z,1010.99
2018-12-23T01:21:39.825Z,1010.98
2018-12-23T01:22:39.812Z,1010.95
2018-12-23T01:23:39.791Z,1011.00
2018-12-23T01:24:39.784Z,1011.01
2018-12-23T01:25:39.795Z,1011.03
2018-12-23T01:26:39.769Z,1011.01
2018-12-23T01:27:39.753Z,1011.01
2018-12-23T01:28:39.744Z,1011.00
2018-12-23T01:29:39.728Z,1010.99
2018-12-23T01:30:39.717Z,1011.06
2018-12-23T01:31:39.740Z,1011.11
2018-12-23T01:32:39.699Z,1011.08
2018-12-23T01:33:39.749Z,1011.16
2018-12-23T01:34:39.697Z,1011.13
2018-12-23T01:35:39.668Z,1011.08
2018-12-23T01:36:39.677Z,1011.11
2018-12-23T01:37:39.660Z,1011.07
2018-12-23T01:38:39.630Z,1011.11
2018-12-23T01:39:39.628Z,1011.08
2018-12-23T01:40:39.688Z,1011.07
2018-12-23T01:41:39.653Z,1011.09
2018-12-23T01:42:39.588Z,1011.08
2018-12-23T01:43:39.572Z,1011.12
2018-12-23T01:44:39.655Z,1011.11
2018-12-23T01:45:39.572Z,1011.15
2018-12-23T01:46:39.580Z,1011.14
2018-12-23T01:47:39.608Z,1011.17
2018-12-23T01:48:39.515Z,1011.22
2018-12-23T01:49:39.508Z,1011.22
2018-12-23T01:50:39.505Z,1011.19
2018-12-23T01:51:39.532Z,1011.22
2018-12-23T01:52:39.481Z,1011.23
2018-12-23T01:53:39.557Z,1011.18
2018-12-23T01:54:39.445Z,1011.23
2018-12-23T01:55:39.436Z,1011.22
2018-12-23T01:56:39.441Z,1011.27
2018-12-23T01:57:39.418Z,1011.24
2018-12-23T01:58:39.403Z,1011.23
2018-12-23T01:59:39.399Z,1011.28
2018-12-23T02:00:39.468Z,1011.24
2018-12-23T02:01:39.415Z,1011.28
2018-12-23T02:02:39.357Z,1011.22
2018-12-23T02:03:39.356Z,1011.25
2018-12-23T02:04:39.400Z,1011.26
2018-12-23T02:05:46.017Z,1011.28
2018-12-23T02:06:40.363Z,1011.29
2018-12-23T02:07:39.320Z,1011.28
2018-12-23T02:08:39.343Z,1011.24
2018-12-23T02:09:39.300Z,1011.27
2018-12-23T02:10:39.286Z,1011.27
2018-12-23T02:11:39.295Z,1011.23
2018-12-23T02:12:39.246Z,1011.24
2018-12-23T02:13:39.247Z,1011.22
2018-12-23T02:14:39.246Z,1011.18
2018-12-23T02:15:39.219Z,1011.17
2018-12-23T02:16:39.220Z,1011.21
2018-12-23T02:17:39.204Z,1011.15
2018-12-23T02:18:39.191Z,1011.22
2018-12-23T02:19:39.183Z,1011.24
2018-12-23T02:20:39.153Z,1011.23
2018-12-23T02:21:39.247Z,1011.26
2018-12-23T02:22:39.135Z,1011.25
2018-12-23T02:23:39.133Z,1011.28
2018-12-23T02:24:39.195Z,1011.33
2018-12-23T02:25:39.120Z,1011.33
2018-12-23T02:26:39.100Z,1011.36
2018-12-23T02:27:39.087Z,1011.35
2018-12-23T02:28:39.065Z,1011.37
2018-12-23T02:29:39.060Z,1011.36
2018-12-23T02:30:39.133Z,1011.40
2018-12-23T02:31:39.081Z,1011.38
2018-12-23T02:32:39.051Z,1011.36
2018-12-23T02:33:39.046Z,1011.31
2018-12-23T02:34:39.004Z,1011.35
2018-12-23T02:35:38.997Z,1011.34
2018-12-23T02:36:39.009Z,1011.32
2018-12-23T02:37:38.990Z,1011.31
2018-12-23T02:38:38.955Z,1011.31
2018-12-23T02:39:38.944Z,1011.26
2018-12-23T02:40:38.930Z,1011.32
2018-12-23T02:41:38.997Z,1011.29
2018-12-23T02:42:38.935Z,1011.29
2018-12-23T02:43:38.904Z,1011.32
2018-12-23T02:44:38.889Z,1011.34
2018-12-23T02:45:38.921Z,1011.37
2018-12-23T02:46:38.913Z,1011.36
2018-12-23T02:47:38.881Z,1011.38
2018-12-23T02:48:38.860Z,1011.32
2018-12-23T02:49:38.847Z,1011.33
2018-12-23T02:50:38.825Z,1011.29
2018-12-23T02:51:38.914Z,1011.36
2018-12-23T02:52:38.812Z,1011.33
2018-12-23T02:53:38.824Z,1011.39
2018-12-23T02:54:38.801Z,1011.36
2018-12-23T02:55:38.834Z,1011.40
2018-12-23T02:56:38.798Z,1011.39
2018-12-23T02:57:38.768Z,1011.40
2018-12-23T02:58:38.736Z,1011.37
2018-12-23T02:59:38.751Z,1011.32
2018-12-23T03:00:38.719Z,1011.32
2018-12-23T03:01:38.728Z,1011.30
2018-12-23T03:02:38.696Z,1011.31
2018-12-23T03:03:38.683Z,1011.33
2018-12-23T03:04:38.692Z,1011.33
2018-12-23T03:05:38.664Z,1011.32
2018-12-23T03:06:38.741Z,1011.35
2018-12-23T03:07:38.661Z,1011.38
2018-12-23T03:08:38.625Z,1011.40
2018-12-23T03:09:38.650Z,1011.36
2018-12-23T03:10:38.647Z,1011.43
2018-12-23T03:11:38.608Z,1011.38
2018-12-23T03:12:38.802Z,1011.38
2018-12-23T03:13:38.571Z,1011.37
2018-12-23T03:14:38.573Z,1011.36
2018-12-23T03:15:38.562Z,1011.34
2018-12-23T03:16:38.544Z,1011.35
2018-12-23T03:17:38.536Z,1011.41
2018-12-23T03:18:38.523Z,1011.31
2018-12-23T03:19:38.488Z,1011.35
2018-12-23T03:20:38.486Z,1011.30
2018-12-23T03:21:38.465Z,1011.30
2018-12-23T03:22:38.464Z,1011.31
2018-12-23T03:23:38.455Z,1011.35
2018-12-23T03:24:38.448Z,1011.31
2018-12-23T03:25:38.428Z,1011.33
2018-12-23T03:26:38.445Z,1011.30
2018-12-23T03:27:38.402Z,1011.27
2018-12-23T03:28:38.430Z,1011.29
2018-12-23T03:29:38.381Z,1011.30
2018-12-23T03:30:38.371Z,1011.25
2018-12-23T03:31:38.374Z,1011.27
2018-12-23T03:32:38.376Z,1011.19
2018-12-23T03:33:38.374Z,1011.23
2018-12-23T03:34:38.339Z,1011.19
2018-12-23T03:35:38.337Z,1011.20
2018-12-23T03:36:38.302Z,1011.22
2018-12-23T03:37:38.304Z,1011.20
2018-12-23T03:38:38.311Z,1011.21
2018-12-23T03:39:38.284Z,1011.23
2018-12-23T03:40:38.261Z,1011.29
2018-12-23T03:41:38.246Z,1011.26
2018-12-23T03:42:38.238Z,1011.24
2018-12-23T03:43:38.240Z,1011.22
2018-12-23T03:44:38.226Z,1011.14
2018-12-23T03:45:38.234Z,1011.10
2018-12-23T03:46:38.192Z,1011.11
2018-12-23T03:47:38.180Z,1011.09
2018-12-23T03:48:38.198Z,1011.10
2018-12-23T03:49:38.155Z,1011.09
2018-12-23T03:50:38.146Z,1011.15
2018-12-23T03:51:38.132Z,1011.12
2018-12-23T03:52:38.129Z,1011.13
2018-12-23T03:53:38.131Z,1011.15
2018-12-23T03:54:38.111Z,1011.19
2018-12-23T03:55:38.105Z,1011.21
2018-12-23T03:56:38.084Z,1011.17
2018-12-23T03:57:38.078Z,1011.18
2018-12-23T03:58:38.069Z,1011.20
2018-12-23T03:59:38.045Z,1011.22
2018-12-23T04:00:38.040Z,1011.22
2018-12-23T04:01:38.025Z,1011.18
2018-12-23T04:02:38.011Z,1011.25
2018-12-23T04:03:38.039Z,1011.26
2018-12-23T04:04:37.996Z,1011.25
2018-12-23T04:05:37.982Z,1011.22
2018-12-23T04:06:37.964Z,1011.24
2018-12-23T04:07:37.954Z,1011.22
2018-12-23T04:08:37.975Z,1011.18
2018-12-23T04:09:37.949Z,1011.22
2018-12-23T04:10:37.928Z,1011.23
2018-12-23T04:11:37.913Z,1011.26
2018-12-23T04:12:37.899Z,1011.23
2018-12-23T04:13:37.919Z,1011.22
2018-12-23T04:14:37.874Z,1011.22
2018-12-23T04:15:37.870Z,1011.23
2018-12-23T04:16:37.865Z,1011.25
2018-12-23T04:17:37.839Z,1011.25
2018-12-23T04:18:37.860Z,1011.25
2018-12-23T04:19:37.828Z,1011.23
2018-12-23T04:20:37.810Z,1011.21
2018-12-23T04:21:37.813Z,1011.18
2018-12-23T04:22:37.817Z,1011.18
2018-12-23T04:23:37.778Z,1011.18
2018-12-23T04:24:37.818Z,1011.21
2018-12-23T04:25:37.760Z,1011.12
2018-12-23T04:26:37.746Z,1011.10
2018-12-23T04:27:37.761Z,1011.14
2018-12-23T04:28:37.726Z,1011.14
2018-12-23T04:29:37.734Z,1011.13
2018-12-23T04:30:37.699Z,1011.19
2018-12-23T04:31:37.692Z,1011.21
2018-12-23T04:32:37.685Z,1011.20
2018-12-23T04:33:37.680Z,1011.23
2018-12-23T04:34:37.677Z,1011.23
2018-12-23T04:35:37.644Z,1011.24
2018-12-23T04:36:37.655Z,1011.22
2018-12-23T04:37:37.621Z,1011.25
2018-12-23T04:38:37.612Z,1011.25
2018-12-23T04:39:37.614Z,1011.26
2018-12-23T04:40:37.587Z,1011.29
2018-12-23T04:41:37.595Z,1011.24
2018-12-23T04:42:37.573Z,1011.23
2018-12-23T04:43:37.561Z,1011.24
2018-12-23T04:44:37.563Z,1011.18
2018-12-23T04:45:37.531Z,1011.22
2018-12-23T04:46:37.523Z,1011.23
2018-12-23T04:47:37.507Z,1011.18
2018-12-23T04:48:37.504Z,1011.17
2018-12-23T04:49:37.585Z,1011.13
2018-12-23T04:50:37.471Z,1011.20
2018-12-23T04:51:37.506Z,1011.21
2018-12-23T04:52:37.448Z,1011.19
2018-12-23T04:53:37.439Z,1011.24
2018-12-23T04:54:37.473Z,1011.13
2018-12-23T04:55:37.421Z,1011.19
2018-12-23T04:56:37.410Z,1011.16
2018-12-23T04:57:37.405Z,1011.19
2018-12-23T04:58:37.476Z,1011.11
2018-12-23T04:59:37.393Z,1011.16
2018-12-23T05:00:37.421Z,1011.18
2018-12-23T05:01:37.387Z,1011.19
2018-12-23T05:02:37.335Z,1011.18
2018-12-23T05:03:42.596Z,1011.16
2018-12-23T05:04:38.325Z,1011.15
2018-12-23T05:05:37.300Z,1011.18
2018-12-23T05:06:43.252Z,1011.10
2018-12-23T05:07:38.278Z,1011.15
2018-12-23T05:08:37.268Z,1011.13
2018-12-23T05:09:37.273Z,1011.15
2018-12-23T05:10:37.248Z,1011.18
2018-12-23T05:11:37.245Z,1011.15
2018-12-23T05:12:37.237Z,1011.12
2018-12-23T05:13:37.231Z,1011.07
2018-12-23T05:14:37.268Z,1011.06
2018-12-23T05:15:37.200Z,1011.09
2018-12-23T05:16:37.187Z,1011.10
2018-12-23T05:17:37.191Z,1011.09
2018-12-23T05:18:37.175Z,1011.05
2018-12-23T05:19:37.151Z,1011.11
2018-12-23T05:20:37.196Z,1011.11
2018-12-23T05:21:37.139Z,1011.10
2018-12-23T05:22:37.175Z,1011.07
2018-12-23T05:23:37.111Z,1011.07
2018-12-23T05:24:37.098Z,1011.06
2018-12-23T05:25:37.098Z,1011.03
2018-12-23T05:26:37.065Z,1011.03
2018-12-23T05:27:37.056Z,1011.03
2018-12-23T05:28:37.052Z,1011.01
2018-12-23T05:29:37.046Z,1011.03
2018-12-23T05:30:37.053Z,1011.05
2018-12-23T05:31:37.035Z,1011.04
2018-12-23T05:32:37.007Z,1010.99
2018-12-23T05:33:36.991Z,1010.97
2018-12-23T05:34:36.979Z,1010.98
2018-12-23T05:35:36.973Z,1010.97
2018-12-23T05:36:36.957Z,1010.96
2018-12-23T05:37:36.958Z,1010.96
2018-12-23T05:38:36.944Z,1010.93
2018-12-23T05:39:36.929Z,1010.97
2018-12-23T05:40:36.956Z,1010.96
2018-12-23T05:41:36.902Z,1010.98
2018-12-23T05:42:36.885Z,1010.98
2018-12-23T05:43:36.892Z,1010.96
2018-12-23T05:44:36.888Z,1010.98
2018-12-23T05:45:36.874Z,1010.93
2018-12-23T05:46:36.840Z,1010.98
2018-12-23T05:47:36.845Z,1010.98
2018-12-23T05:48:36.822Z,1010.96
2018-12-23T05:49:36.814Z,1011.01
2018-12-23T05:50:36.851Z,1011.07
2018-12-23T05:51:36.796Z,1011.11
2018-12-23T05:52:36.777Z,1011.08
2018-12-23T05:53:36.764Z,1011.08
2018-12-23T05:54:36.758Z,1011.08
2018-12-23T05:55:36.758Z,1011.12
2018-12-23T05:56:36.734Z,1011.12
2018-12-23T05:57:36.719Z,1011.15
2018-12-23T05:58:36.726Z,1011.16
2018-12-23T05:59:36.695Z,1011.12
2018-12-23T06:00:36.765Z,1011.11
2018-12-23T06:01:36.683Z,1011.09
2018-12-23T06:02:36.677Z,1011.05
2018-12-23T06:03:36.673Z,1011.10
2018-12-23T06:04:36.641Z,1011.11
2018-12-23T06:05:36.647Z,1011.13
2018-12-23T06:06:36.692Z,1011.16
2018-12-23T06:07:36.638Z,1011.16
2018-12-23T06:08:36.609Z,1011.17
2018-12-23T06:09:36.604Z,1011.17
2018-12-23T06:10:36.600Z,1011.19
2018-12-23T06:11:36.584Z,1011.20
2018-12-23T06:12:36.562Z,1011.19
2018-12-23T06:13:36.542Z,1011.21
2018-12-23T06:14:36.538Z,1011.23
2018-12-23T06:15:36.611Z,1011.19
2018-12-23T06:16:36.532Z,1011.19
2018-12-23T06:17:36.502Z,1011.17
2018-12-23T06:18:36.485Z,1011.16
2018-12-23T06:19:36.471Z,1011.18
2018-12-23T06:20:36.467Z,1011.23
2018-12-23T06:21:36.471Z,1011.18
2018-12-23T06:22:36.442Z,1011.19
2018-12-23T06:23:36.429Z,1011.22
2018-12-23T06:24:36.418Z,1011.19
2018-12-23T06:25:36.418Z,1011.22
2018-12-23T06:26:36.434Z,1011.20
2018-12-23T06:27:36.385Z,1011.27
2018-12-23T06:28:36.375Z,1011.24
2018-12-23T06:29:36.359Z,1011.26
2018-12-23T06:30:36.368Z,1011.25
2018-12-23T06:31:36.352Z,1011.26
2018-12-23T06:32:36.341Z,1011.26
2018-12-23T06:33:36.323Z,1011.25
2018-12-23T06:34:36.308Z,1011.25
2018-12-23T06:35:36.290Z,1011.31
2018-12-23T06:36:36.294Z,1011.24
2018-12-23T06:37:36.284Z,1011.30
2018-12-23T06:38:36.273Z,1011.25
2018-12-23T06:39:36.253Z,1011.27
2018-12-23T06:40:36.253Z,1011.23
2018-12-23T06:41:36.262Z,1011.21
2018-12-23T06:42:36.210Z,1011.20
2018-12-23T06:43:36.216Z,1011.18
2018-12-23T06:44:36.202Z,1011.20
2018-12-23T06:45:36.188Z,1011.12
2018-12-23T06:46:36.183Z,1011.16
2018-12-23T06:47:36.178Z,1011.18
2018-12-23T06:48:36.146Z,1011.16
2018-12-23T06:49:36.159Z,1011.13
2018-12-23T06:50:36.123Z,1011.11
2018-12-23T06:51:36.133Z,1011.12
2018-12-23T06:52:36.148Z,1011.12
2018-12-23T06:53:36.128Z,1011.11
2018-12-23T06:54:36.103Z,1011.12
2018-12-23T06:55:36.073Z,1011.17
2018-12-23T06:56:36.059Z,1011.14
2018-12-23T06:57:36.134Z,1011.17
2018-12-23T06:58:36.052Z,1011.22
2018-12-23T06:59:36.054Z,1011.20
2018-12-23T07:00:36.008Z,1011.14
2018-12-23T07:01:35.998Z,1011.19
2018-12-23T07:02:36.018Z,1011.18
2018-12-23T07:03:36.020Z,1011.16
2018-12-23T07:04:35.967Z,1011.16
2018-12-23T07:05:35.952Z,1011.15
2018-12-23T07:06:35.972Z,1011.19
2018-12-23T07:07:35.958Z,1011.18
2018-12-23T07:08:35.940Z,1011.24
2018-12-23T07:09:35.925Z,1011.21
2018-12-23T07:10:35.913Z,1011.24
2018-12-23T07:11:35.905Z,1011.23
2018-12-23T07:12:35.911Z,1011.30
2018-12-23T07:13:35.896Z,1011.29
2018-12-23T07:14:35.852Z,1011.29
2018-12-23T07:15:35.853Z,1011.27
2018-12-23T07:16:35.844Z,1011.30
2018-12-23T07:17:35.832Z,1011.31
2018-12-23T07:18:35.808Z,1011.32
2018-12-23T07:19:35.800Z,1011.31
2018-12-23T07:20:35.789Z,1011.30
2018-12-23T07:21:35.794Z,1011.29
2018-12-23T07:22:35.787Z,1011.30
2018-12-23T07:23:35.761Z,1011.34
2018-12-23T07:24:35.740Z,1011.36
2018-12-23T07:25:35.741Z,1011.36
2018-12-23T07:26:35.718Z,1011.36
2018-12-23T07:27:35.728Z,1011.37
2018-12-23T07:28:35.717Z,1011.36
2018-12-23T07:29:35.682Z,1011.38
2018-12-23T07:30:35.680Z,1011.37
2018-12-23T07:31:35.671Z,1011.35
2018-12-23T07:32:35.662Z,1011.36
2018-12-23T07:33:35.645Z,1011.31
2018-12-23T07:34:35.638Z,1011.34
2018-12-23T07:35:35.640Z,1011.34
2018-12-23T07:36:35.629Z,1011.32
2018-12-23T07:37:35.613Z,1011.30
2018-12-23T07:38:35.588Z,1011.30
2018-12-23T07:39:35.572Z,1011.32
2018-12-23T07:40:35.573Z,1011.33
2018-12-23T07:41:35.567Z,1011.35
2018-12-23T07:42:35.585Z,1011.37
2018-12-23T07:43:37.680Z,1011.34
2018-12-23T07:44:35.512Z,1011.38
2018-12-23T07:45:35.503Z,1011.37
2018-12-23T07:46:35.491Z,1011.40
2018-12-23T07:47:35.525Z,1011.34
2018-12-23T07:48:35.511Z,1011.38
2018-12-23T07:49:35.460Z,1011.38
2018-12-23T07:50:35.443Z,1011.35
2018-12-23T07:51:35.448Z,1011.37
2018-12-23T07:52:35.423Z,1011.36
2018-12-23T07:53:35.423Z,1011.35
2018-12-23T07:54:35.399Z,1011.40
2018-12-23T07:55:35.396Z,1011.37
2018-12-23T07:56:35.378Z,1011.36
2018-12-23T07:57:35.370Z,1011.40
2018-12-23T07:58:35.384Z,1011.39
2018-12-23T07:59:35.349Z,1011.41
2018-12-23T08:00:35.332Z,1011.41
2018-12-23T08:01:35.340Z,1011.38
2018-12-23T08:02:35.314Z,1011.38
2018-12-23T08:03:35.310Z,1011.39
2018-12-23T08:04:35.290Z,1011.35
2018-12-23T08:05:35.291Z,1011.37
2018-12-23T08:06:35.265Z,1011.32
2018-12-23T08:07:36.222Z,1011.35
2018-12-23T08:08:35.253Z,1011.28
2018-12-23T08:09:35.231Z,1011.25
2018-12-23T08:10:35.227Z,1011.26
2018-12-23T08:11:35.223Z,1011.28
2018-12-23T08:12:35.198Z,1011.24
2018-12-23T08:13:35.211Z,1011.26
2018-12-23T08:14:35.187Z,1011.24
2018-12-23T08:15:35.193Z,1011.21
2018-12-23T08:16:35.170Z,1011.23
2018-12-23T08:17:35.140Z,1011.25
2018-12-23T08:18:35.140Z,1011.20
2018-12-23T08:19:35.124Z,1011.22
2018-12-23T08:20:35.108Z,1011.23
2018-12-23T08:21:35.094Z,1011.27
2018-12-23T08:22:35.163Z,1011.24
2018-12-23T08:23:35.086Z,1011.29
2018-12-23T08:24:35.062Z,1011.25
2018-12-23T08:25:35.741Z,1011.29
2018-12-23T08:26:35.041Z,1011.25
2018-12-23T08:27:35.046Z,1011.25
2018-12-23T08:28:35.034Z,1011.22
2018-12-23T08:29:35.006Z,1011.22
2018-12-23T08:30:34.994Z,1011.16
2018-12-23T08:31:35.002Z,1011.20
2018-12-23T08:32:34.983Z,1011.19
2018-12-23T08:33:34.972Z,1011.19
2018-12-23T08:34:34.980Z,1011.17
2018-12-23T08:35:34.949Z,1011.15
2018-12-23T08:36:34.927Z,1011.14
2018-12-23T08:37:34.919Z,1011.11
2018-12-23T08:38:34.917Z,1011.13
2018-12-23T08:39:34.897Z,1011.12
2018-12-23T08:40:34.881Z,1011.10
2018-12-23T08:41:34.868Z,1011.12
2018-12-23T08:42:34.876Z,1011.10
2018-12-23T08:43:34.861Z,1011.10
2018-12-23T08:44:34.877Z,1011.08
2018-12-23T08:45:34.829Z,1011.15
2018-12-23T08:46:39.062Z,1011.16
2018-12-23T08:47:34.803Z,1011.17
2018-12-23T08:48:34.805Z,1011.12
2018-12-23T08:49:34.781Z,1011.16
2018-12-23T08:50:34.771Z,1011.11
2018-12-23T08:51:34.760Z,1011.09
2018-12-23T08:52:34.750Z,1011.07
2018-12-23T08:53:34.760Z,1011.02
2018-12-23T08:54:34.727Z,1011.07
2018-12-23T08:55:34.721Z,1011.05
2018-12-23T08:56:34.705Z,1011.07
2018-12-23T08:57:35.434Z,1011.10
2018-12-23T08:58:34.700Z,1011.05
2018-12-23T08:59:34.692Z,1011.09
2018-12-23T09:00:34.660Z,1011.07
2018-12-23T09:01:34.649Z,1011.06
2018-12-23T09:02:34.641Z,1011.08
2018-12-23T09:03:34.642Z,1011.03
2018-12-23T09:04:34.620Z,1010.99
2018-12-23T09:05:34.603Z,1011.00
2018-12-23T09:06:34.591Z,1011.02
2018-12-23T09:07:34.577Z,1011.03
2018-12-23T09:08:34.582Z,1011.06
2018-12-23T09:09:34.556Z,1011.03
2018-12-23T09:10:34.548Z,1011.00
2018-12-23T09:11:42.671Z,1011.01
2018-12-23T09:12:35.522Z,1011.03
2018-12-23T09:13:34.527Z,1011.09
2018-12-23T09:14:34.521Z,1011.06
2018-12-23T09:15:34.493Z,1011.04
2018-12-23T09:16:34.489Z,1011.03
2018-12-23T09:17:34.469Z,1011.02
2018-12-23T09:18:34.482Z,1010.99
2018-12-23T09:19:34.461Z,1010.99
2018-12-23T09:20:34.454Z,1010.98
2018-12-23T09:21:34.425Z,1010.98
2018-12-23T09:22:34.420Z,1010.96
2018-12-23T09:23:34.460Z,1010.96
2018-12-23T09:24:34.426Z,1010.96
2018-12-23T09:25:34.408Z,1010.97
2018-12-23T09:26:34.437Z,1011.01
2018-12-23T09:27:34.356Z,1011.03
2018-12-23T09:28:34.396Z,1010.99
2018-12-23T09:29:34.334Z,1011.00
2018-12-23T09:30:34.324Z,1011.01
2018-12-23T09:31:34.319Z,1011.03
2018-12-23T09:32:34.326Z,1011.03
2018-12-23T09:33:34.301Z,1011.07
2018-12-23T09:34:34.288Z,1011.02
2018-12-23T09:35:34.265Z,1011.04
2018-12-23T09:36:34.251Z,1011.03
2018-12-23T09:37:34.245Z,1011.03
2018-12-23T09:38:34.243Z,1011.04
2018-12-23T09:39:34.239Z,1011.02
2018-12-23T09:40:34.322Z,1011.04
2018-12-23T09:41:34.231Z,1011.03
2018-12-23T09:42:34.216Z,1011.04
2018-12-23T09:43:34.198Z,1011.01
2018-12-23T09:44:34.195Z,1010.98
2018-12-23T09:45:34.154Z,1010.99
2018-12-23T09:46:34.165Z,1011.00
2018-12-23T09:47:34.127Z,1010.98
2018-12-23T09:48:34.118Z,1010.99
2018-12-23T09:49:34.196Z,1010.94
2018-12-23T09:50:34.103Z,1010.89
2018-12-23T09:51:34.092Z,1010.89
2018-12-23T09:52:34.076Z,1010.91
2018-12-23T09:53:34.071Z,1010.87
2018-12-23T09:54:34.066Z,1010.91
2018-12-23T09:55:34.047Z,1010.89
2018-12-23T09:56:34.042Z,1010.87
2018-12-23T09:57:34.015Z,1010.88
2018-12-23T09:58:34.003Z,1010.86
2018-12-23T09:59:34.010Z,1010.88
2018-12-23T10:00:33.989Z,1010.85
2018-12-23T10:01:34.000Z,1010.87
2018-12-23T10:02:33.991Z,1010.88
2018-12-23T10:03:33.947Z,1010.82
2018-12-23T10:04:33.952Z,1010.85
2018-12-23T10:05:33.935Z,1010.85
2018-12-23T10:06:33.931Z,1010.84
2018-12-23T10:07:33.904Z,1010.78
2018-12-23T10:08:33.893Z,1010.85
2018-12-23T10:09:33.892Z,1010.81
2018-12-23T10:10:33.871Z,1010.81
2018-12-23T10:11:33.882Z,1010.71
2018-12-23T10:12:33.851Z,1010.80
2018-12-23T10:13:33.849Z,1010.71
2018-12-23T10:14:33.866Z,1010.62
2018-12-23T10:15:33.824Z,1010.65
2018-12-23T10:16:33.817Z,1010.66
2018-12-23T10:17:33.806Z,1010.67
2018-12-23T10:18:33.781Z,1010.62
2018-12-23T10:19:33.801Z,1010.62
2018-12-23T10:20:33.757Z,1010.59
2018-12-23T10:21:33.748Z,1010.55
2018-12-23T10:22:33.735Z,1010.59
2018-12-23T10:23:33.724Z,1010.51
2018-12-23T10:24:33.726Z,1010.54
2018-12-23T10:25:33.704Z,1010.50
2018-12-23T10:26:33.690Z,1010.52
2018-12-23T10:27:33.680Z,1010.51
2018-12-23T10:28:33.676Z,1010.49
2018-12-23T10:29:33.685Z,1010.47
2018-12-23T10:30:33.664Z,1010.46
2018-12-23T10:31:33.635Z,1010.44
2018-12-23T10:32:33.621Z,1010.45
2018-12-23T10:33:33.612Z,1010.45
2018-12-23T10:34:33.634Z,1010.48
2018-12-23T10:35:33.596Z,1010.44
2018-12-23T10:36:33.580Z,1010.42
2018-12-23T10:37:33.566Z,1010.38
2018-12-23T10:38:33.564Z,1010.35
2018-12-23T10:39:33.730Z,1010.34
2018-12-23T10:40:33.531Z,1010.37
2018-12-23T10:41:33.520Z,1010.35
2018-12-23T10:42:33.517Z,1010.35
2018-12-23T10:43:33.588Z,1010.30
2018-12-23T10:44:33.498Z,1010.31
2018-12-23T10:45:33.598Z,1010.31
2018-12-23T10:46:33.469Z,1010.35
2018-12-23T10:47:33.454Z,1010.33
2018-12-23T10:48:33.461Z,1010.33
2018-12-23T10:49:33.476Z,1010.33
2018-12-23T10:50:33.421Z,1010.28
2018-12-23T10:51:33.416Z,1010.29
2018-12-23T10:52:33.415Z,1010.23
2018-12-23T10:53:33.394Z,1010.20
2018-12-23T10:54:33.387Z,1010.16
2018-12-23T10:55:33.370Z,1010.11
2018-12-23T10:56:33.355Z,1010.07
2018-12-23T10:57:33.352Z,1010.08
2018-12-23T10:58:33.333Z,1009.99
2018-12-23T10:59:33.329Z,1010.07
2018-12-23T11:00:33.313Z,1010.07
2018-12-23T11:01:33.304Z,1010.07
2018-12-23T11:02:33.288Z,1010.05
2018-12-23T11:03:33.287Z,1010.04
2018-12-23T11:04:33.382Z,1010.08
2018-12-23T11:05:33.259Z,1010.04
2018-12-23T11:06:33.241Z,1010.02
2018-12-23T11:07:33.331Z,1009.98
2018-12-23T11:08:33.255Z,1009.93
2018-12-23T11:09:33.220Z,1009.91
2018-12-23T11:10:33.202Z,1009.91
2018-12-23T11:11:33.189Z,1009.86
2018-12-23T11:12:33.191Z,1009.89
2018-12-23T11:13:33.182Z,1009.82
2018-12-23T11:14:33.173Z,1009.78
2018-12-23T11:15:33.161Z,1009.77
2018-12-23T11:16:33.132Z,1009.78
2018-12-23T11:17:33.123Z,1009.80
2018-12-23T11:18:33.108Z,1009.73
2018-12-23T11:19:33.118Z,1009.69
2018-12-23T11:20:33.084Z,1009.73
2018-12-23T11:21:33.074Z,1009.66
2018-12-23T11:22:33.104Z,1009.61
2018-12-23T11:23:33.072Z,1009.58
2018-12-23T11:24:33.077Z,1009.51
2018-12-23T11:25:33.030Z,1009.49
2018-12-23T11:26:33.030Z,1009.56
2018-12-23T11:27:33.007Z,1009.48
2018-12-23T11:28:33.014Z,1009.55
2018-12-23T11:29:32.992Z,1009.49
2018-12-23T11:30:33.027Z,1009.50
2018-12-23T11:31:32.963Z,1009.47
2018-12-23T11:32:32.955Z,1009.45
2018-12-23T11:33:32.941Z,1009.45
2018-12-23T11:34:32.927Z,1009.39
2018-12-23T11:35:32.933Z,1009.38
2018-12-23T11:36:32.940Z,1009.36
2018-12-23T11:37:32.900Z,1009.34
2018-12-23T11:38:35.660Z,1009.33
2018-12-23T11:39:32.875Z,1009.32
2018-12-23T11:40:32.886Z,1009.28
2018-12-23T11:41:32.848Z,1009.25
2018-12-23T11:42:32.844Z,1009.26
2018-12-23T11:43:32.830Z,1009.23
2018-12-23T11:44:32.820Z,1009.22
2018-12-23T11:45:32.831Z,1009.24
2018-12-23T11:46:32.801Z,1009.24
2018-12-23T11:47:32.785Z,1009.25
2018-12-23T11:48:32.782Z,1009.22
2018-12-23T11:49:32.761Z,1009.21
2018-12-23T11:50:32.766Z,1009.15
2018-12-23T11:51:32.751Z,1009.12
2018-12-23T11:52:32.728Z,1009.05
2018-12-23T11:53:32.714Z,1009.02
2018-12-23T11:54:32.728Z,1009.05
2018-12-23T11:55:32.712Z,1009.05
2018-12-23T11:56:32.692Z,1009.08
2018-12-23T11:57:32.672Z,1008.98
2018-12-23T11:58:32.677Z,1009.02
2018-12-23T11:59:34.325Z,1008.98
2018-12-23T12:00:32.655Z,1008.96
2018-12-23T12:01:32.644Z,1008.90
2018-12-23T12:02:32.617Z,1008.90
2018-12-23T12:03:32.604Z,1008.91
2018-12-23T12:04:32.598Z,1008.95
2018-12-23T12:05:32.628Z,1008.93